GIA1103 WIMM-OEMA
Flight info
| Callsign | GIA1103 |
|---|---|
| Flight time | 7h 56m |
| Altitude | 32000 |
| Route | MAIM1A MAIMU MEMAK N563 REXOD L883 UMILA N569 TOKRA ITRUX Y511 ELONU |
| Aircraft | B77W/H-SDE1E2E3FGHIJ2J3J4J5M1RWXY/LB1D1 |
Departure
| Time | 2026-04-24 11:28 |
|---|---|
| Airport | Kualanamu International Airport (WIMM) |
Arrival
| Time | 2026-04-24 19:24 |
|---|---|
| Airport | Prince Mohammad Bin Abdulaziz Airport (OEMA) |
| Time | Latitude | Longitude | Altitude | Speed | Heading |
|---|---|---|---|---|---|
| 2026-04-24 10:22 | 3.63917 | 98.87840 | 39 ft | 0 kts | 225° |
| 2026-04-24 11:07 | 3.63919 | 98.87841 | 38 ft | 1 kts | 225° |
| 2026-04-24 11:08 | 3.63930 | 98.87854 | 39 ft | 3 kts | 237° |
| 2026-04-24 11:08 | 3.63939 | 98.87870 | 39 ft | 3 kts | 256° |
| 2026-04-24 11:08 | 3.63942 | 98.87888 | 38 ft | 3 kts | 276° |
| 2026-04-24 11:08 | 3.63939 | 98.87905 | 38 ft | 3 kts | 295° |
| 2026-04-24 11:09 | 3.63930 | 98.87922 | 38 ft | 3 kts | 307° |
| 2026-04-24 11:09 | 3.63921 | 98.87933 | 38 ft | 3 kts | 313° |
| 2026-04-24 11:09 | 3.63907 | 98.87947 | 38 ft | 3 kts | 319° |
| 2026-04-24 11:09 | 3.63892 | 98.87960 | 39 ft | 3 kts | 322° |
| 2026-04-24 11:10 | 3.63881 | 98.87968 | 38 ft | 3 kts | 322° |
| 2026-04-24 11:10 | 3.63864 | 98.87981 | 39 ft | 3 kts | 321° |
| 2026-04-24 11:10 | 3.63851 | 98.87992 | 38 ft | 1 kts | 315° |
| 2026-04-24 11:10 | 3.63850 | 98.87993 | 39 ft | 0 kts | 315° |
| 2026-04-24 11:13 | 3.63853 | 98.87990 | 38 ft | 2 kts | 315° |
| 2026-04-24 11:14 | 3.63874 | 98.87970 | 39 ft | 6 kts | 315° |
| 2026-04-24 11:14 | 3.63917 | 98.87958 | 38 ft | 8 kts | 23° |
| 2026-04-24 11:14 | 3.63965 | 98.87997 | 39 ft | 10 kts | 43° |
| 2026-04-24 11:14 | 3.64024 | 98.88054 | 38 ft | 12 kts | 44° |
| 2026-04-24 11:15 | 3.64069 | 98.88098 | 38 ft | 7 kts | 45° |
| 2026-04-24 11:15 | 3.64116 | 98.88135 | 38 ft | 9 kts | 15° |
| 2026-04-24 11:15 | 3.64177 | 98.88103 | 38 ft | 12 kts | 316° |
| 2026-04-24 11:15 | 3.64245 | 98.88036 | 38 ft | 12 kts | 315° |
| 2026-04-24 11:16 | 3.64279 | 98.88003 | 38 ft | 4 kts | 315° |
| 2026-04-24 11:16 | 3.64299 | 98.87981 | 38 ft | 6 kts | 305° |
| 2026-04-24 11:16 | 3.64291 | 98.87932 | 38 ft | 10 kts | 228° |
| 2026-04-24 11:16 | 3.64224 | 98.87863 | 38 ft | 17 kts | 225° |
| 2026-04-24 11:17 | 3.64116 | 98.87755 | 38 ft | 25 kts | 225° |
| 2026-04-24 11:17 | 3.64034 | 98.87674 | 38 ft | 28 kts | 225° |
| 2026-04-24 11:17 | 3.63963 | 98.87603 | 39 ft | 25 kts | 224° |
| 2026-04-24 11:17 | 3.63747 | 98.87389 | 38 ft | 28 kts | 225° |
| 2026-04-24 11:18 | 3.63633 | 98.87275 | 38 ft | 11 kts | 225° |
| 2026-04-24 11:18 | 3.63635 | 98.87205 | 39 ft | 14 kts | 298° |
| 2026-04-24 11:18 | 3.63595 | 98.87111 | 39 ft | 22 kts | 224° |
| 2026-04-24 11:18 | 3.63461 | 98.86978 | 38 ft | 30 kts | 225° |
| 2026-04-24 11:19 | 3.63334 | 98.86851 | 38 ft | 24 kts | 225° |
| 2026-04-24 11:19 | 3.63280 | 98.86798 | 38 ft | 22 kts | 225° |
| 2026-04-24 11:19 | 3.63172 | 98.86691 | 38 ft | 21 kts | 224° |
| 2026-04-24 11:19 | 3.63068 | 98.86588 | 39 ft | 19 kts | 225° |
| 2026-04-24 11:20 | 3.62968 | 98.86489 | 38 ft | 22 kts | 225° |
| 2026-04-24 11:20 | 3.62854 | 98.86375 | 39 ft | 24 kts | 225° |
| 2026-04-24 11:20 | 3.62728 | 98.86250 | 39 ft | 22 kts | 225° |
| 2026-04-24 11:20 | 3.62695 | 98.86218 | 38 ft | 23 kts | 225° |
| 2026-04-24 11:21 | 3.62565 | 98.86089 | 39 ft | 0 kts | 225° |
| 2026-04-24 11:21 | 3.62554 | 98.86078 | 39 ft | 6 kts | 225° |
| 2026-04-24 11:21 | 3.62512 | 98.86034 | 38 ft | 12 kts | 231° |
| 2026-04-24 11:21 | 3.62507 | 98.85972 | 38 ft | 0 kts | 297° |
| 2026-04-24 11:23 | 3.62507 | 98.85971 | 38 ft | 0 kts | 297° |
| 2026-04-24 11:23 | 3.62524 | 98.85949 | 38 ft | 8 kts | 312° |
| 2026-04-24 11:23 | 3.62582 | 98.85895 | 39 ft | 10 kts | 319° |
| 2026-04-24 11:24 | 3.62614 | 98.85887 | 38 ft | 7 kts | 24° |
| 2026-04-24 11:24 | 3.62654 | 98.85921 | 38 ft | 0 kts | 44° |
| 2026-04-24 11:26 | 3.62684 | 98.85950 | 38 ft | 14 kts | 44° |
| 2026-04-24 11:27 | 3.62905 | 98.86169 | 39 ft | 75 kts | 45° |
| 2026-04-24 11:27 | 3.63421 | 98.86680 | 39 ft | 132 kts | 45° |
| 2026-04-24 11:27 | 3.64216 | 98.87466 | 39 ft | 184 kts | 45° |
| 2026-04-24 11:27 | 3.65196 | 98.88443 | 214 ft | 208 kts | 45° |
| 2026-04-24 11:28 | 3.66223 | 98.89456 | 835 ft | 212 kts | 44° |
| 2026-04-24 11:28 | 3.67494 | 98.90284 | 1374 ft | 220 kts | 20° |
| 2026-04-24 11:28 | 3.68997 | 98.90442 | 2036 ft | 217 kts | 351° |
| 2026-04-24 11:28 | 3.70343 | 98.89846 | 2643 ft | 215 kts | 327° |
| 2026-04-24 11:29 | 3.71560 | 98.88829 | 3050 ft | 222 kts | 316° |
| 2026-04-24 11:29 | 3.72278 | 98.87988 | 3405 ft | 224 kts | 306° |
| 2026-04-24 11:29 | 3.73143 | 98.86691 | 3923 ft | 225 kts | 303° |
| 2026-04-24 11:29 | 3.73983 | 98.85317 | 4233 ft | 239 kts | 301° |
| 2026-04-24 11:30 | 3.74848 | 98.83824 | 4461 ft | 257 kts | 300° |
| 2026-04-24 11:30 | 3.75757 | 98.82212 | 4770 ft | 271 kts | 299° |
| 2026-04-24 11:30 | 3.76687 | 98.80557 | 5295 ft | 278 kts | 299° |
| 2026-04-24 11:30 | 3.77648 | 98.78845 | 5882 ft | 282 kts | 300° |
| 2026-04-24 11:31 | 3.78633 | 98.77093 | 6496 ft | 286 kts | 300° |
| 2026-04-24 11:31 | 3.79640 | 98.75305 | 7177 ft | 288 kts | 300° |
| 2026-04-24 11:31 | 3.80630 | 98.73547 | 7772 ft | 291 kts | 299° |
| 2026-04-24 11:31 | 3.81627 | 98.71765 | 8329 ft | 295 kts | 298° |
| 2026-04-24 11:32 | 3.82535 | 98.69905 | 8885 ft | 299 kts | 294° |
| 2026-04-24 11:32 | 3.83346 | 98.67967 | 9440 ft | 302 kts | 291° |
| 2026-04-24 11:32 | 3.84094 | 98.66005 | 9985 ft | 305 kts | 290° |
| 2026-04-24 11:32 | 3.84836 | 98.63971 | 10344 ft | 317 kts | 289° |
| 2026-04-24 11:33 | 3.85615 | 98.61859 | 10542 ft | 333 kts | 290° |
| 2026-04-24 11:33 | 3.86495 | 98.59518 | 10719 ft | 352 kts | 290° |
| 2026-04-24 11:33 | 3.87363 | 98.57250 | 10882 ft | 369 kts | 290° |
| 2026-04-24 11:33 | 3.88307 | 98.54799 | 11154 ft | 383 kts | 290° |
| 2026-04-24 11:34 | 3.89282 | 98.52274 | 11538 ft | 394 kts | 290° |
| 2026-04-24 11:34 | 3.90293 | 98.49657 | 12028 ft | 401 kts | 290° |
| 2026-04-24 11:34 | 3.91306 | 98.47037 | 12593 ft | 406 kts | 290° |
| 2026-04-24 11:34 | 3.92333 | 98.44382 | 13136 ft | 411 kts | 290° |
| 2026-04-24 11:35 | 3.93372 | 98.41694 | 13675 ft | 415 kts | 290° |
| 2026-04-24 11:35 | 3.94435 | 98.38947 | 14212 ft | 420 kts | 290° |
| 2026-04-24 11:35 | 3.95507 | 98.36175 | 14750 ft | 423 kts | 290° |
| 2026-04-24 11:35 | 3.96284 | 98.34167 | 15178 ft | 424 kts | 290° |
| 2026-04-24 11:36 | 3.97412 | 98.31252 | 15758 ft | 427 kts | 290° |
| 2026-04-24 11:36 | 3.98485 | 98.28475 | 16287 ft | 429 kts | 290° |
| 2026-04-24 11:36 | 3.99585 | 98.25639 | 16805 ft | 431 kts | 290° |
| 2026-04-24 11:36 | 4.00674 | 98.22833 | 17299 ft | 433 kts | 290° |
| 2026-04-24 11:37 | 4.01813 | 98.19893 | 17798 ft | 436 kts | 290° |
| 2026-04-24 11:37 | 4.02925 | 98.17019 | 18262 ft | 438 kts | 290° |
| 2026-04-24 11:37 | 4.04047 | 98.14120 | 18717 ft | 440 kts | 290° |
| 2026-04-24 11:37 | 4.05155 | 98.11256 | 19153 ft | 442 kts | 290° |
| 2026-04-24 11:38 | 4.06268 | 98.08377 | 19554 ft | 445 kts | 290° |
| 2026-04-24 11:38 | 4.07492 | 98.05210 | 19982 ft | 447 kts | 290° |
| 2026-04-24 11:38 | 4.08706 | 98.02072 | 20382 ft | 450 kts | 290° |
| 2026-04-24 11:38 | 4.09845 | 97.99130 | 20745 ft | 453 kts | 290° |
| 2026-04-24 11:39 | 4.10983 | 97.96183 | 21098 ft | 455 kts | 290° |
| 2026-04-24 11:39 | 4.11744 | 97.94224 | 21333 ft | 456 kts | 290° |
| 2026-04-24 11:39 | 4.12509 | 97.92254 | 21560 ft | 458 kts | 290° |
| 2026-04-24 11:39 | 4.14058 | 97.88258 | 21990 ft | 461 kts | 290° |
| 2026-04-24 11:40 | 4.15222 | 97.85251 | 22316 ft | 464 kts | 290° |
| 2026-04-24 11:40 | 4.15995 | 97.83255 | 22528 ft | 465 kts | 290° |
| 2026-04-24 11:40 | 4.17168 | 97.80227 | 22836 ft | 467 kts | 290° |
| 2026-04-24 11:40 | 4.18362 | 97.77145 | 23141 ft | 469 kts | 290° |
| 2026-04-24 11:41 | 4.19544 | 97.74092 | 23436 ft | 471 kts | 290° |
| 2026-04-24 11:41 | 4.20735 | 97.71024 | 23753 ft | 473 kts | 290° |
| 2026-04-24 11:41 | 4.21848 | 97.68151 | 24008 ft | 475 kts | 290° |
| 2026-04-24 11:41 | 4.23143 | 97.64812 | 24315 ft | 476 kts | 290° |
| 2026-04-24 11:42 | 4.24344 | 97.61711 | 24582 ft | 478 kts | 290° |
| 2026-04-24 11:42 | 4.25567 | 97.58552 | 24839 ft | 480 kts | 290° |
| 2026-04-24 11:42 | 4.26757 | 97.55479 | 25079 ft | 482 kts | 290° |
| 2026-04-24 11:42 | 4.27988 | 97.52299 | 25318 ft | 484 kts | 290° |
| 2026-04-24 11:43 | 4.29212 | 97.49140 | 25570 ft | 485 kts | 290° |
| 2026-04-24 11:43 | 4.30454 | 97.45946 | 25855 ft | 486 kts | 290° |
| 2026-04-24 11:43 | 4.31681 | 97.42781 | 26049 ft | 489 kts | 290° |
| 2026-04-24 11:43 | 4.32961 | 97.39476 | 26283 ft | 490 kts | 290° |
| 2026-04-24 11:44 | 4.34195 | 97.36284 | 26502 ft | 492 kts | 290° |
| 2026-04-24 11:44 | 4.35445 | 97.33054 | 26718 ft | 494 kts | 290° |
| 2026-04-24 11:44 | 4.36583 | 97.30111 | 26909 ft | 495 kts | 290° |
| 2026-04-24 11:44 | 4.37889 | 97.26733 | 27125 ft | 497 kts | 290° |
| 2026-04-24 11:45 | 4.39112 | 97.23349 | 27324 ft | 497 kts | 285° |
| 2026-04-24 11:45 | 4.39863 | 97.19949 | 27441 ft | 500 kts | 277° |
| 2026-04-24 11:45 | 4.40116 | 97.16474 | 27611 ft | 501 kts | 270° |
| 2026-04-24 11:45 | 4.40062 | 97.12930 | 27782 ft | 503 kts | 267° |
| 2026-04-24 11:46 | 4.39802 | 97.09427 | 27972 ft | 504 kts | 263° |
| 2026-04-24 11:46 | 4.39370 | 97.05939 | 28185 ft | 504 kts | 261° |
| 2026-04-24 11:46 | 4.38871 | 97.02458 | 28450 ft | 504 kts | 261° |
| 2026-04-24 11:46 | 4.38375 | 96.98833 | 28541 ft | 507 kts | 262° |
| 2026-04-24 11:47 | 4.37927 | 96.95366 | 28718 ft | 508 kts | 262° |
| 2026-04-24 11:47 | 4.37482 | 96.91853 | 28881 ft | 509 kts | 262° |
| 2026-04-24 11:47 | 4.37039 | 96.88337 | 29078 ft | 509 kts | 262° |
| 2026-04-24 11:47 | 4.36599 | 96.84853 | 29212 ft | 510 kts | 262° |
| 2026-04-24 11:48 | 4.36143 | 96.81237 | 29415 ft | 510 kts | 262° |
| 2026-04-24 11:48 | 4.35809 | 96.77715 | 29566 ft | 510 kts | 268° |
| 2026-04-24 11:48 | 4.36708 | 96.70600 | 29744 ft | 514 kts | 285° |
| 2026-04-24 11:49 | 4.38713 | 96.64968 | 29745 ft | 518 kts | 292° |
| 2026-04-24 11:49 | 4.41726 | 96.58429 | 29758 ft | 521 kts | 296° |
| 2026-04-24 11:50 | 4.44401 | 96.52791 | 29758 ft | 522 kts | 295° |
| 2026-04-24 11:50 | 4.47470 | 96.46148 | 29757 ft | 521 kts | 294° |
| 2026-04-24 11:51 | 4.50490 | 96.39542 | 29758 ft | 521 kts | 295° |
| 2026-04-24 11:51 | 4.53505 | 96.32932 | 29757 ft | 521 kts | 294° |
| 2026-04-24 11:52 | 4.56509 | 96.26333 | 29758 ft | 521 kts | 294° |
| 2026-04-24 11:52 | 4.59516 | 96.19721 | 29757 ft | 521 kts | 294° |
| 2026-04-24 11:53 | 4.62603 | 96.12929 | 29758 ft | 521 kts | 294° |
| 2026-04-24 11:53 | 4.65549 | 96.06446 | 29758 ft | 521 kts | 294° |
| 2026-04-24 11:54 | 4.68549 | 95.99840 | 29757 ft | 521 kts | 294° |
| 2026-04-24 11:54 | 4.71589 | 95.93146 | 29758 ft | 521 kts | 294° |
| 2026-04-24 11:55 | 4.74637 | 95.86430 | 29757 ft | 521 kts | 294° |
| 2026-04-24 11:55 | 4.77612 | 95.79876 | 29758 ft | 520 kts | 294° |
| 2026-04-24 11:56 | 4.80659 | 95.73160 | 29758 ft | 520 kts | 294° |
| 2026-04-24 11:56 | 4.83663 | 95.66535 | 29757 ft | 520 kts | 294° |
| 2026-04-24 11:57 | 4.86679 | 95.59883 | 29758 ft | 520 kts | 294° |
| 2026-04-24 11:57 | 4.89696 | 95.53227 | 29758 ft | 520 kts | 294° |
| 2026-04-24 11:58 | 4.92688 | 95.46623 | 29757 ft | 520 kts | 294° |
| 2026-04-24 11:58 | 4.95747 | 95.39871 | 29758 ft | 520 kts | 294° |
| 2026-04-24 11:59 | 4.98203 | 95.34448 | 29757 ft | 520 kts | 294° |
| 2026-04-24 11:59 | 5.00726 | 95.28874 | 29757 ft | 520 kts | 294° |
| 2026-04-24 12:00 | 5.04201 | 95.21196 | 29758 ft | 520 kts | 294° |
| 2026-04-24 12:00 | 5.06707 | 95.15658 | 29758 ft | 520 kts | 294° |
| 2026-04-24 12:01 | 5.09697 | 95.09048 | 29758 ft | 520 kts | 294° |
| 2026-04-24 12:01 | 5.12668 | 95.02478 | 29757 ft | 520 kts | 294° |
| 2026-04-24 12:02 | 5.15673 | 94.95830 | 29758 ft | 520 kts | 294° |
| 2026-04-24 12:02 | 5.18662 | 94.89213 | 29758 ft | 520 kts | 294° |
| 2026-04-24 12:03 | 5.21768 | 94.82338 | 29758 ft | 520 kts | 294° |
| 2026-04-24 12:03 | 5.24749 | 94.75738 | 29757 ft | 520 kts | 294° |
| 2026-04-24 12:04 | 5.27756 | 94.69077 | 29757 ft | 520 kts | 294° |
| 2026-04-24 12:04 | 5.30739 | 94.62466 | 29758 ft | 520 kts | 294° |
| 2026-04-24 12:05 | 5.33722 | 94.55853 | 29758 ft | 520 kts | 294° |
| 2026-04-24 12:05 | 5.36710 | 94.49229 | 29757 ft | 520 kts | 294° |
| 2026-04-24 12:06 | 5.39709 | 94.42575 | 29758 ft | 520 kts | 294° |
| 2026-04-24 12:06 | 5.42695 | 94.35950 | 29758 ft | 520 kts | 294° |
| 2026-04-24 12:07 | 5.45718 | 94.29240 | 29757 ft | 520 kts | 294° |
| 2026-04-24 12:07 | 5.48702 | 94.22615 | 29757 ft | 520 kts | 294° |
| 2026-04-24 12:08 | 5.51197 | 94.17073 | 29758 ft | 521 kts | 294° |
| 2026-04-24 12:08 | 5.54685 | 94.09322 | 29758 ft | 521 kts | 294° |
| 2026-04-24 12:09 | 5.57169 | 94.03801 | 29758 ft | 520 kts | 294° |
| 2026-04-24 12:09 | 5.60162 | 93.97148 | 29758 ft | 520 kts | 294° |
| 2026-04-24 12:10 | 5.62538 | 93.91862 | 29758 ft | 521 kts | 294° |
| 2026-04-24 12:11 | 5.67288 | 93.81294 | 29758 ft | 523 kts | 294° |
| 2026-04-24 12:11 | 5.70298 | 93.74593 | 29758 ft | 522 kts | 294° |
| 2026-04-24 12:12 | 5.73312 | 93.67881 | 29758 ft | 523 kts | 294° |
| 2026-04-24 12:12 | 5.76300 | 93.61225 | 29757 ft | 523 kts | 294° |
| 2026-04-24 12:13 | 5.79293 | 93.54554 | 29758 ft | 522 kts | 294° |
| 2026-04-24 12:13 | 5.82256 | 93.47944 | 29761 ft | 523 kts | 294° |
| 2026-04-24 12:14 | 5.85360 | 93.41024 | 29760 ft | 522 kts | 295° |
| 2026-04-24 12:14 | 5.88367 | 93.34326 | 29759 ft | 523 kts | 294° |
| 2026-04-24 12:15 | 5.91080 | 93.28272 | 29758 ft | 523 kts | 294° |
| 2026-04-24 12:15 | 5.94077 | 93.21574 | 29767 ft | 523 kts | 294° |
| 2026-04-24 12:16 | 5.97151 | 93.14705 | 29766 ft | 524 kts | 294° |
| 2026-04-24 12:16 | 6.00088 | 93.08140 | 29769 ft | 523 kts | 294° |
| 2026-04-24 12:17 | 6.03129 | 93.01453 | 29772 ft | 522 kts | 295° |
| 2026-04-24 12:17 | 6.06245 | 92.94632 | 29773 ft | 523 kts | 295° |
| 2026-04-24 12:18 | 6.09256 | 92.88028 | 29771 ft | 523 kts | 295° |
| 2026-04-24 12:18 | 6.12394 | 92.81135 | 29771 ft | 523 kts | 295° |
| 2026-04-24 12:19 | 6.15577 | 92.74150 | 29774 ft | 523 kts | 295° |
| 2026-04-24 12:19 | 6.18377 | 92.68011 | 29776 ft | 523 kts | 295° |
| 2026-04-24 12:20 | 6.21031 | 92.62184 | 29775 ft | 523 kts | 295° |
| 2026-04-24 12:20 | 6.24087 | 92.55468 | 29778 ft | 523 kts | 295° |
| 2026-04-24 12:21 | 6.27215 | 92.48589 | 29778 ft | 523 kts | 295° |
| 2026-04-24 12:21 | 6.30260 | 92.41890 | 29777 ft | 523 kts | 295° |
| 2026-04-24 12:22 | 6.33284 | 92.35236 | 29777 ft | 523 kts | 295° |
| 2026-04-24 12:22 | 6.36366 | 92.28451 | 29781 ft | 523 kts | 295° |
| 2026-04-24 12:23 | 6.39396 | 92.21776 | 29782 ft | 523 kts | 295° |
| 2026-04-24 12:23 | 6.42498 | 92.14941 | 29781 ft | 523 kts | 295° |
| 2026-04-24 12:24 | 6.45152 | 92.09090 | 29782 ft | 525 kts | 295° |
| 2026-04-24 12:24 | 6.48203 | 92.02363 | 29783 ft | 523 kts | 295° |
| 2026-04-24 12:25 | 6.51281 | 91.95573 | 29784 ft | 523 kts | 295° |
| 2026-04-24 12:25 | 6.54295 | 91.88921 | 29784 ft | 523 kts | 295° |
| 2026-04-24 12:26 | 6.57351 | 91.82172 | 29786 ft | 523 kts | 295° |
| 2026-04-24 12:26 | 6.60347 | 91.75556 | 29786 ft | 523 kts | 295° |
| 2026-04-24 12:27 | 6.63380 | 91.68853 | 29785 ft | 523 kts | 295° |
| 2026-04-24 12:27 | 6.66415 | 91.62143 | 29786 ft | 523 kts | 295° |
| 2026-04-24 12:28 | 6.69519 | 91.55278 | 29788 ft | 523 kts | 295° |
| 2026-04-24 12:28 | 6.72443 | 91.48809 | 29788 ft | 523 kts | 295° |
| 2026-04-24 12:29 | 6.75473 | 91.42102 | 29789 ft | 523 kts | 295° |
| 2026-04-24 12:29 | 6.78336 | 91.35763 | 29789 ft | 523 kts | 295° |
| 2026-04-24 12:30 | 6.81366 | 91.29050 | 29789 ft | 523 kts | 295° |
| 2026-04-24 12:30 | 6.84374 | 91.22383 | 29789 ft | 523 kts | 295° |
| 2026-04-24 12:31 | 6.87401 | 91.15672 | 29791 ft | 523 kts | 295° |
| 2026-04-24 12:31 | 6.90389 | 91.09043 | 29790 ft | 523 kts | 295° |
| 2026-04-24 12:32 | 6.93376 | 91.02415 | 29791 ft | 523 kts | 295° |
| 2026-04-24 12:32 | 6.96419 | 90.95658 | 29791 ft | 523 kts | 295° |
| 2026-04-24 12:33 | 6.99140 | 90.89616 | 29790 ft | 523 kts | 295° |
| 2026-04-24 12:33 | 7.02324 | 90.82540 | 29791 ft | 523 kts | 295° |
| 2026-04-24 12:34 | 7.04901 | 90.76812 | 29791 ft | 523 kts | 295° |
| 2026-04-24 12:34 | 7.07988 | 90.69947 | 29791 ft | 523 kts | 295° |
| 2026-04-24 12:35 | 7.10987 | 90.63273 | 29792 ft | 523 kts | 295° |
| 2026-04-24 12:35 | 7.13988 | 90.56593 | 29792 ft | 523 kts | 295° |
| 2026-04-24 12:36 | 7.17009 | 90.49867 | 29792 ft | 523 kts | 295° |
| 2026-04-24 12:36 | 7.20026 | 90.43144 | 29791 ft | 523 kts | 295° |
| 2026-04-24 12:37 | 7.23046 | 90.36413 | 29793 ft | 523 kts | 295° |
| 2026-04-24 12:37 | 7.26023 | 90.29773 | 29793 ft | 523 kts | 295° |
| 2026-04-24 12:38 | 7.29019 | 90.23090 | 29792 ft | 523 kts | 295° |
| 2026-04-24 12:38 | 7.32056 | 90.16311 | 29793 ft | 523 kts | 295° |
| 2026-04-24 12:39 | 7.38051 | 90.02921 | 29792 ft | 523 kts | 295° |
| 2026-04-24 12:40 | 7.41044 | 89.96229 | 29814 ft | 523 kts | 295° |
| 2026-04-24 12:40 | 7.44054 | 89.89499 | 29817 ft | 523 kts | 295° |
| 2026-04-24 12:41 | 7.47045 | 89.82807 | 29817 ft | 523 kts | 295° |
| 2026-04-24 12:41 | 7.50030 | 89.76125 | 29814 ft | 523 kts | 295° |
| 2026-04-24 12:42 | 7.53016 | 89.69437 | 29816 ft | 523 kts | 295° |
| 2026-04-24 12:42 | 7.55600 | 89.63648 | 29817 ft | 523 kts | 295° |
| 2026-04-24 12:43 | 7.58752 | 89.56597 | 29816 ft | 523 kts | 295° |
| 2026-04-24 12:43 | 7.61717 | 89.49945 | 29816 ft | 523 kts | 295° |
| 2026-04-24 12:44 | 7.64836 | 89.42939 | 29817 ft | 523 kts | 295° |
| 2026-04-24 12:44 | 7.67837 | 89.36197 | 29817 ft | 523 kts | 295° |
| 2026-04-24 12:45 | 7.70851 | 89.29457 | 29817 ft | 523 kts | 295° |
| 2026-04-24 12:45 | 7.73986 | 89.22623 | 29816 ft | 523 kts | 295° |
| 2026-04-24 12:46 | 7.77032 | 89.15960 | 29816 ft | 523 kts | 295° |
| 2026-04-24 12:46 | 7.80195 | 89.09024 | 29817 ft | 523 kts | 295° |
| 2026-04-24 12:47 | 7.83234 | 89.02353 | 29817 ft | 523 kts | 295° |
| 2026-04-24 12:47 | 7.85786 | 88.96766 | 29816 ft | 523 kts | 295° |
| 2026-04-24 12:48 | 7.88847 | 88.90060 | 29817 ft | 523 kts | 295° |
| 2026-04-24 12:48 | 7.91886 | 88.83390 | 29817 ft | 523 kts | 295° |
| 2026-04-24 12:49 | 7.94928 | 88.76707 | 29817 ft | 523 kts | 295° |
| 2026-04-24 12:49 | 7.98067 | 88.69821 | 29790 ft | 520 kts | 293° |
| 2026-04-24 12:50 | 8.01225 | 88.62873 | 29758 ft | 520 kts | 292° |
| 2026-04-24 12:50 | 8.04275 | 88.56153 | 29758 ft | 519 kts | 292° |
| 2026-04-24 12:51 | 8.07275 | 88.49544 | 29758 ft | 520 kts | 292° |
| 2026-04-24 12:51 | 8.10279 | 88.42927 | 29757 ft | 520 kts | 292° |
| 2026-04-24 12:52 | 8.13329 | 88.36204 | 29757 ft | 520 kts | 292° |
| 2026-04-24 12:52 | 8.15995 | 88.30324 | 29758 ft | 520 kts | 292° |
| 2026-04-24 12:53 | 8.19009 | 88.23674 | 29757 ft | 520 kts | 292° |
| 2026-04-24 12:53 | 8.22072 | 88.16915 | 29757 ft | 520 kts | 292° |
| 2026-04-24 12:54 | 8.25147 | 88.10123 | 29758 ft | 520 kts | 292° |
| 2026-04-24 12:54 | 8.28178 | 88.03422 | 29761 ft | 523 kts | 293° |
| 2026-04-24 12:55 | 8.31286 | 87.96558 | 29764 ft | 521 kts | 292° |
| 2026-04-24 12:55 | 8.34294 | 87.89903 | 29757 ft | 520 kts | 292° |
| 2026-04-24 12:56 | 8.37301 | 87.83239 | 29763 ft | 524 kts | 293° |
| 2026-04-24 12:56 | 8.40342 | 87.76514 | 29765 ft | 527 kts | 292° |
| 2026-04-24 12:57 | 8.43367 | 87.69814 | 29757 ft | 522 kts | 292° |
| 2026-04-24 12:57 | 8.46370 | 87.63136 | 29790 ft | 523 kts | 294° |
| 2026-04-24 12:58 | 8.49392 | 87.56442 | 29791 ft | 523 kts | 295° |
| 2026-04-24 12:58 | 8.52418 | 87.49738 | 29785 ft | 526 kts | 294° |
| 2026-04-24 12:59 | 8.55471 | 87.42959 | 29784 ft | 528 kts | 294° |
| 2026-04-24 12:59 | 8.58449 | 87.36342 | 29789 ft | 524 kts | 295° |
| 2026-04-24 13:00 | 8.61498 | 87.29569 | 29789 ft | 523 kts | 295° |
| 2026-04-24 13:00 | 8.64509 | 87.22872 | 29791 ft | 523 kts | 295° |
| 2026-04-24 13:01 | 8.67539 | 87.16129 | 29790 ft | 523 kts | 295° |
| 2026-04-24 13:01 | 8.70057 | 87.10523 | 29790 ft | 523 kts | 295° |
| 2026-04-24 13:02 | 8.73553 | 87.02736 | 29790 ft | 523 kts | 295° |
| 2026-04-24 13:02 | 8.76074 | 86.97119 | 29789 ft | 523 kts | 295° |
| 2026-04-24 13:03 | 8.79080 | 86.90416 | 29789 ft | 523 kts | 295° |
| 2026-04-24 13:03 | 8.82105 | 86.83667 | 29790 ft | 523 kts | 295° |
| 2026-04-24 13:04 | 8.85152 | 86.76865 | 29790 ft | 523 kts | 295° |
| 2026-04-24 13:04 | 8.88173 | 86.70118 | 29790 ft | 523 kts | 295° |
| 2026-04-24 13:05 | 8.91166 | 86.63428 | 29789 ft | 523 kts | 295° |
| 2026-04-24 13:05 | 8.94212 | 86.56617 | 29789 ft | 523 kts | 295° |
| 2026-04-24 13:06 | 8.97232 | 86.49860 | 29789 ft | 523 kts | 295° |
| 2026-04-24 13:06 | 9.00252 | 86.43100 | 29789 ft | 523 kts | 295° |
| 2026-04-24 13:07 | 9.03251 | 86.36381 | 29789 ft | 523 kts | 295° |
| 2026-04-24 13:07 | 9.06242 | 86.29677 | 29788 ft | 523 kts | 295° |
| 2026-04-24 13:08 | 9.09157 | 86.23140 | 29789 ft | 523 kts | 295° |
| 2026-04-24 13:08 | 9.12257 | 86.16188 | 29789 ft | 523 kts | 295° |
| 2026-04-24 13:09 | 9.16764 | 86.06079 | 29788 ft | 523 kts | 295° |
| 2026-04-24 13:09 | 9.19649 | 85.99587 | 29789 ft | 523 kts | 295° |
| 2026-04-24 13:10 | 9.22738 | 85.92636 | 29789 ft | 523 kts | 295° |
| 2026-04-24 13:10 | 9.25743 | 85.85874 | 29788 ft | 523 kts | 295° |
| 2026-04-24 13:11 | 9.28305 | 85.80320 | 29789 ft | 523 kts | 296° |
| 2026-04-24 13:11 | 9.31442 | 85.73611 | 29788 ft | 523 kts | 296° |
| 2026-04-24 13:12 | 9.34539 | 85.66941 | 29788 ft | 523 kts | 295° |
| 2026-04-24 13:12 | 9.37628 | 85.60272 | 29788 ft | 523 kts | 295° |
| 2026-04-24 13:13 | 9.40744 | 85.53545 | 29788 ft | 523 kts | 296° |
| 2026-04-24 13:13 | 9.43840 | 85.46875 | 29788 ft | 523 kts | 295° |
| 2026-04-24 13:14 | 9.46927 | 85.40209 | 29788 ft | 523 kts | 295° |
| 2026-04-24 13:14 | 9.50144 | 85.33251 | 29788 ft | 523 kts | 295° |
| 2026-04-24 13:15 | 9.53225 | 85.26584 | 29787 ft | 523 kts | 295° |
| 2026-04-24 13:15 | 9.56457 | 85.19584 | 29787 ft | 523 kts | 295° |
| 2026-04-24 13:16 | 9.59620 | 85.12728 | 29788 ft | 523 kts | 295° |
| 2026-04-24 13:16 | 9.62579 | 85.06311 | 29788 ft | 523 kts | 295° |
| 2026-04-24 13:17 | 9.65259 | 85.00495 | 29787 ft | 523 kts | 295° |
| 2026-04-24 13:17 | 9.68360 | 84.93763 | 29788 ft | 523 kts | 295° |
| 2026-04-24 13:18 | 9.71461 | 84.87028 | 29788 ft | 523 kts | 295° |
| 2026-04-24 13:18 | 9.74537 | 84.80341 | 29787 ft | 523 kts | 295° |
| 2026-04-24 13:19 | 9.77655 | 84.73560 | 29787 ft | 523 kts | 295° |
| 2026-04-24 13:19 | 9.80528 | 84.67306 | 29788 ft | 523 kts | 295° |
| 2026-04-24 13:20 | 9.83624 | 84.60564 | 29788 ft | 523 kts | 295° |
| 2026-04-24 13:20 | 9.86711 | 84.53838 | 29787 ft | 523 kts | 295° |
| 2026-04-24 13:21 | 9.89802 | 84.47099 | 29786 ft | 523 kts | 295° |
| 2026-04-24 13:21 | 9.92870 | 84.40405 | 29787 ft | 523 kts | 295° |
| 2026-04-24 13:22 | 9.95979 | 84.33619 | 29787 ft | 523 kts | 295° |
| 2026-04-24 13:22 | 9.99047 | 84.26917 | 29787 ft | 523 kts | 295° |
| 2026-04-24 13:23 | 10.02110 | 84.20222 | 29786 ft | 523 kts | 295° |
| 2026-04-24 13:23 | 10.05157 | 84.13557 | 29787 ft | 523 kts | 295° |
| 2026-04-24 13:24 | 10.08263 | 84.06760 | 29787 ft | 523 kts | 295° |
| 2026-04-24 13:24 | 10.11318 | 84.00069 | 29787 ft | 523 kts | 295° |
| 2026-04-24 13:25 | 10.14476 | 83.93149 | 29787 ft | 523 kts | 295° |
| 2026-04-24 13:25 | 10.17480 | 83.86563 | 29786 ft | 523 kts | 295° |
| 2026-04-24 13:26 | 10.20534 | 83.79861 | 29786 ft | 523 kts | 295° |
| 2026-04-24 13:26 | 10.23629 | 83.73066 | 29787 ft | 523 kts | 295° |
| 2026-04-24 13:27 | 10.26700 | 83.66319 | 29787 ft | 523 kts | 295° |
| 2026-04-24 13:27 | 10.29343 | 83.60510 | 29786 ft | 523 kts | 295° |
| 2026-04-24 13:28 | 10.32412 | 83.53759 | 29786 ft | 523 kts | 295° |
| 2026-04-24 13:28 | 10.35542 | 83.46868 | 29787 ft | 523 kts | 295° |
| 2026-04-24 13:29 | 10.38590 | 83.40156 | 29787 ft | 523 kts | 295° |
| 2026-04-24 13:29 | 10.41518 | 83.33702 | 29786 ft | 523 kts | 295° |
| 2026-04-24 13:30 | 10.44586 | 83.26935 | 29786 ft | 523 kts | 295° |
| 2026-04-24 13:30 | 10.47670 | 83.20130 | 29786 ft | 523 kts | 295° |
| 2026-04-24 13:31 | 10.50716 | 83.13413 | 29786 ft | 523 kts | 295° |
| 2026-04-24 13:31 | 10.53758 | 83.06700 | 29786 ft | 523 kts | 295° |
| 2026-04-24 13:32 | 10.56815 | 82.99932 | 29786 ft | 523 kts | 295° |
| 2026-04-24 13:32 | 10.59866 | 82.93173 | 29785 ft | 523 kts | 295° |
| 2026-04-24 13:33 | 10.62945 | 82.86354 | 29785 ft | 523 kts | 295° |
| 2026-04-24 13:33 | 10.65988 | 82.79635 | 29786 ft | 523 kts | 295° |
| 2026-04-24 13:34 | 10.69039 | 82.72910 | 29786 ft | 523 kts | 295° |
| 2026-04-24 13:34 | 10.72120 | 82.66104 | 29786 ft | 523 kts | 295° |
| 2026-04-24 13:35 | 10.75166 | 82.59376 | 29785 ft | 524 kts | 294° |
| 2026-04-24 13:35 | 10.78214 | 82.52630 | 29785 ft | 526 kts | 294° |
| 2026-04-24 13:36 | 10.80802 | 82.46955 | 29783 ft | 526 kts | 293° |
| 2026-04-24 13:36 | 10.83860 | 82.40187 | 29784 ft | 530 kts | 294° |
| 2026-04-24 13:37 | 10.86951 | 82.33346 | 29785 ft | 535 kts | 294° |
| 2026-04-24 13:37 | 10.90046 | 82.26494 | 29786 ft | 536 kts | 294° |
| 2026-04-24 13:38 | 10.93129 | 82.19672 | 29787 ft | 522 kts | 292° |
| 2026-04-24 13:38 | 10.96140 | 82.12987 | 29784 ft | 517 kts | 292° |
| 2026-04-24 13:39 | 10.99128 | 82.06351 | 29784 ft | 518 kts | 292° |
| 2026-04-24 13:39 | 11.01946 | 82.00096 | 29787 ft | 519 kts | 292° |
| 2026-04-24 13:40 | 11.04950 | 81.93420 | 29789 ft | 518 kts | 291° |
| 2026-04-24 13:40 | 11.07951 | 81.86744 | 29790 ft | 519 kts | 291° |
| 2026-04-24 13:41 | 11.10965 | 81.80037 | 29791 ft | 516 kts | 291° |
| 2026-04-24 13:41 | 11.13969 | 81.73348 | 29790 ft | 515 kts | 291° |
| 2026-04-24 13:42 | 11.16962 | 81.66675 | 29790 ft | 515 kts | 291° |
| 2026-04-24 13:42 | 11.19944 | 81.60025 | 29790 ft | 516 kts | 291° |
| 2026-04-24 13:43 | 11.22999 | 81.53211 | 29788 ft | 515 kts | 291° |
| 2026-04-24 13:43 | 11.25974 | 81.46574 | 29784 ft | 508 kts | 290° |
| 2026-04-24 13:44 | 11.28906 | 81.40016 | 29782 ft | 504 kts | 289° |
| 2026-04-24 13:44 | 11.31822 | 81.33493 | 29781 ft | 508 kts | 289° |
| 2026-04-24 13:45 | 11.34753 | 81.26932 | 29779 ft | 503 kts | 289° |
| 2026-04-24 13:45 | 11.37612 | 81.20530 | 29777 ft | 500 kts | 289° |
| 2026-04-24 13:46 | 11.40533 | 81.13983 | 29781 ft | 506 kts | 289° |
| 2026-04-24 13:46 | 11.43112 | 81.08201 | 29782 ft | 507 kts | 289° |
| 2026-04-24 13:47 | 11.45998 | 81.01723 | 29780 ft | 502 kts | 289° |
| 2026-04-24 13:47 | 11.48913 | 80.95178 | 29779 ft | 499 kts | 289° |
| 2026-04-24 13:48 | 11.51766 | 80.88767 | 29779 ft | 500 kts | 289° |
| 2026-04-24 13:48 | 11.54639 | 80.82305 | 29779 ft | 500 kts | 289° |
| 2026-04-24 13:49 | 11.57512 | 80.75841 | 29779 ft | 500 kts | 289° |
| 2026-04-24 13:49 | 11.60155 | 80.69888 | 29780 ft | 500 kts | 289° |
| 2026-04-24 13:50 | 11.63016 | 80.63442 | 29779 ft | 500 kts | 289° |
| 2026-04-24 13:50 | 11.65900 | 80.56939 | 29779 ft | 500 kts | 289° |
| 2026-04-24 13:51 | 11.68804 | 80.50384 | 29779 ft | 500 kts | 289° |
| 2026-04-24 13:51 | 11.71667 | 80.43921 | 29780 ft | 500 kts | 289° |
| 2026-04-24 13:52 | 11.74555 | 80.37413 | 29779 ft | 500 kts | 289° |
| 2026-04-24 13:52 | 11.77417 | 80.30941 | 29778 ft | 500 kts | 289° |
| 2026-04-24 13:53 | 11.80321 | 80.24360 | 29778 ft | 500 kts | 289° |
| 2026-04-24 13:53 | 11.83189 | 80.17855 | 29779 ft | 500 kts | 289° |
| 2026-04-24 13:54 | 11.86173 | 80.11087 | 29778 ft | 500 kts | 289° |
| 2026-04-24 13:54 | 11.89000 | 80.04610 | 29778 ft | 499 kts | 289° |
| 2026-04-24 13:55 | 11.91442 | 79.99004 | 29777 ft | 499 kts | 289° |
| 2026-04-24 13:55 | 11.94263 | 79.92523 | 29778 ft | 499 kts | 289° |
| 2026-04-24 13:56 | 11.97097 | 79.86043 | 29775 ft | 499 kts | 289° |
| 2026-04-24 13:56 | 11.99941 | 79.79518 | 29776 ft | 499 kts | 289° |
| 2026-04-24 13:57 | 12.02773 | 79.72996 | 29776 ft | 499 kts | 288° |
| 2026-04-24 13:57 | 12.05613 | 79.66452 | 29774 ft | 499 kts | 288° |
| 2026-04-24 13:58 | 12.08427 | 79.59969 | 29773 ft | 499 kts | 288° |
| 2026-04-24 13:58 | 12.11321 | 79.53514 | 29774 ft | 500 kts | 290° |
| 2026-04-24 13:59 | 12.14242 | 79.47161 | 29773 ft | 500 kts | 290° |
| 2026-04-24 13:59 | 12.16995 | 79.41128 | 29770 ft | 500 kts | 289° |
| 2026-04-24 14:00 | 12.19925 | 79.34686 | 29770 ft | 499 kts | 289° |
| 2026-04-24 14:00 | 12.22849 | 79.28244 | 29770 ft | 499 kts | 289° |
| 2026-04-24 14:01 | 12.25732 | 79.21927 | 29770 ft | 500 kts | 289° |
| 2026-04-24 14:01 | 12.28737 | 79.15322 | 29772 ft | 499 kts | 289° |
| 2026-04-24 14:02 | 12.31586 | 79.09046 | 29779 ft | 499 kts | 289° |
| 2026-04-24 14:02 | 12.34584 | 79.02435 | 29780 ft | 499 kts | 289° |
| 2026-04-24 14:03 | 12.37501 | 78.95996 | 29790 ft | 499 kts | 289° |
| 2026-04-24 14:03 | 12.40436 | 78.89512 | 29790 ft | 498 kts | 289° |
| 2026-04-24 14:04 | 12.43351 | 78.83067 | 29792 ft | 499 kts | 289° |
| 2026-04-24 14:04 | 12.46283 | 78.76578 | 29792 ft | 499 kts | 289° |
| 2026-04-24 14:05 | 12.49273 | 78.69959 | 29812 ft | 498 kts | 289° |
| 2026-04-24 14:05 | 12.51748 | 78.64475 | 29814 ft | 498 kts | 289° |
| 2026-04-24 14:06 | 12.54605 | 78.58140 | 29817 ft | 498 kts | 289° |
| 2026-04-24 14:06 | 12.57548 | 78.51609 | 29818 ft | 498 kts | 289° |
| 2026-04-24 14:07 | 12.60465 | 78.45131 | 29844 ft | 497 kts | 289° |
| 2026-04-24 14:07 | 12.63429 | 78.38542 | 29848 ft | 498 kts | 289° |
| 2026-04-24 14:08 | 12.66296 | 78.32166 | 29858 ft | 498 kts | 289° |
| 2026-04-24 14:08 | 12.69204 | 78.25694 | 29899 ft | 496 kts | 289° |
| 2026-04-24 14:09 | 12.72099 | 78.19244 | 29911 ft | 498 kts | 289° |
| 2026-04-24 14:09 | 12.74771 | 78.13288 | 29922 ft | 498 kts | 289° |
| 2026-04-24 14:10 | 12.77643 | 78.06880 | 29914 ft | 497 kts | 289° |
| 2026-04-24 14:10 | 12.80481 | 78.00543 | 29952 ft | 496 kts | 289° |
| 2026-04-24 14:11 | 12.83460 | 77.93909 | 29968 ft | 495 kts | 289° |
| 2026-04-24 14:12 | 12.87787 | 77.84228 | 29979 ft | 496 kts | 289° |
| 2026-04-24 14:12 | 12.90390 | 77.78391 | 29989 ft | 497 kts | 288° |
| 2026-04-24 14:13 | 12.93263 | 77.71948 | 29992 ft | 496 kts | 289° |
| 2026-04-24 14:13 | 12.96204 | 77.65552 | 29991 ft | 497 kts | 291° |
| 2026-04-24 14:14 | 12.99524 | 77.59310 | 29990 ft | 500 kts | 293° |
| 2026-04-24 14:14 | 13.04652 | 77.49967 | 29981 ft | 502 kts | 293° |
| 2026-04-24 14:15 | 13.08070 | 77.43606 | 29983 ft | 502 kts | 292° |
| 2026-04-24 14:15 | 13.11452 | 77.37279 | 29986 ft | 501 kts | 292° |
| 2026-04-24 14:16 | 13.14832 | 77.30980 | 29976 ft | 500 kts | 292° |
| 2026-04-24 14:17 | 13.19848 | 77.21597 | 29959 ft | 500 kts | 292° |
| 2026-04-24 14:17 | 13.24892 | 77.12136 | 29989 ft | 503 kts | 292° |
| 2026-04-24 14:18 | 13.26637 | 77.08862 | 30343 ft | 500 kts | 292° |
| 2026-04-24 14:18 | 13.27942 | 77.06409 | 30705 ft | 496 kts | 292° |
| 2026-04-24 14:18 | 13.29681 | 77.03143 | 31000 ft | 495 kts | 292° |
| 2026-04-24 14:18 | 13.31334 | 77.00036 | 31111 ft | 497 kts | 292° |
| 2026-04-24 14:19 | 13.34685 | 76.93735 | 31515 ft | 498 kts | 292° |
| 2026-04-24 14:19 | 13.36364 | 76.90574 | 31760 ft | 497 kts | 292° |
| 2026-04-24 14:19 | 13.37760 | 76.87947 | 31889 ft | 499 kts | 292° |
| 2026-04-24 14:20 | 13.41214 | 76.81443 | 32072 ft | 504 kts | 292° |
| 2026-04-24 14:20 | 13.42901 | 76.78262 | 32190 ft | 507 kts | 292° |
| 2026-04-24 14:20 | 13.44589 | 76.75082 | 32312 ft | 508 kts | 292° |
| 2026-04-24 14:21 | 13.46304 | 76.71848 | 32556 ft | 508 kts | 292° |
| 2026-04-24 14:21 | 13.47998 | 76.68652 | 32638 ft | 511 kts | 292° |
| 2026-04-24 14:21 | 13.49701 | 76.65437 | 32746 ft | 513 kts | 292° |
| 2026-04-24 14:21 | 13.50853 | 76.63263 | 32823 ft | 514 kts | 292° |
| 2026-04-24 14:22 | 13.54313 | 76.56728 | 33006 ft | 519 kts | 292° |
| 2026-04-24 14:22 | 13.57780 | 76.50173 | 33280 ft | 522 kts | 293° |
| 2026-04-24 14:23 | 13.59539 | 76.46845 | 33403 ft | 524 kts | 293° |
| 2026-04-24 14:23 | 13.61285 | 76.43542 | 33535 ft | 526 kts | 293° |
| 2026-04-24 14:23 | 13.63066 | 76.40170 | 33659 ft | 528 kts | 293° |
| 2026-04-24 14:23 | 13.64815 | 76.36857 | 33801 ft | 529 kts | 294° |
| 2026-04-24 14:24 | 13.66574 | 76.33526 | 33845 ft | 529 kts | 294° |
| 2026-04-24 14:24 | 13.70089 | 76.26864 | 33855 ft | 530 kts | 294° |
| 2026-04-24 14:25 | 13.73545 | 76.20307 | 33844 ft | 529 kts | 294° |
| 2026-04-24 14:25 | 13.77126 | 76.13508 | 33832 ft | 529 kts | 294° |
| 2026-04-24 14:26 | 13.80641 | 76.06829 | 33830 ft | 528 kts | 294° |
| 2026-04-24 14:26 | 13.84122 | 76.00209 | 33834 ft | 529 kts | 294° |
| 2026-04-24 14:27 | 13.87598 | 75.93592 | 33835 ft | 529 kts | 294° |
| 2026-04-24 14:27 | 13.91116 | 75.86891 | 33826 ft | 509 kts | 293° |
| 2026-04-24 14:27 | 13.92798 | 75.83685 | 33817 ft | 498 kts | 293° |
| 2026-04-24 14:28 | 13.94418 | 75.80607 | 33818 ft | 491 kts | 293° |
| 2026-04-24 14:28 | 13.97667 | 75.74419 | 33813 ft | 489 kts | 293° |
| 2026-04-24 14:29 | 14.00923 | 75.68196 | 33816 ft | 498 kts | 293° |
| 2026-04-24 14:29 | 14.04249 | 75.61829 | 33805 ft | 505 kts | 292° |
| 2026-04-24 14:30 | 14.06783 | 75.56979 | 33808 ft | 510 kts | 293° |
| 2026-04-24 14:30 | 14.10705 | 75.49461 | 33800 ft | 509 kts | 292° |
| 2026-04-24 14:31 | 14.13864 | 75.43385 | 33800 ft | 505 kts | 292° |
| 2026-04-24 14:31 | 14.17370 | 75.36633 | 33799 ft | 513 kts | 292° |
| 2026-04-24 14:32 | 14.20746 | 75.30126 | 33810 ft | 507 kts | 292° |
| 2026-04-24 14:32 | 14.24210 | 75.23445 | 33793 ft | 502 kts | 292° |
| 2026-04-24 14:33 | 14.27004 | 75.18077 | 33812 ft | 490 kts | 292° |
| 2026-04-24 14:33 | 14.30207 | 75.11913 | 33803 ft | 486 kts | 292° |
| 2026-04-24 14:34 | 14.33545 | 75.05475 | 33767 ft | 488 kts | 292° |
| 2026-04-24 14:34 | 14.36847 | 74.99114 | 33826 ft | 495 kts | 293° |
| 2026-04-24 14:35 | 14.40055 | 74.92906 | 33860 ft | 489 kts | 293° |
| 2026-04-24 14:35 | 14.43278 | 74.86648 | 33882 ft | 480 kts | 294° |
| 2026-04-24 14:36 | 14.46422 | 74.80560 | 33879 ft | 469 kts | 295° |
| 2026-04-24 14:36 | 14.49563 | 74.74482 | 33884 ft | 465 kts | 295° |
| 2026-04-24 14:37 | 14.52194 | 74.69529 | 33884 ft | 466 kts | 296° |
| 2026-04-24 14:37 | 14.55363 | 74.63554 | 33884 ft | 467 kts | 296° |
| 2026-04-24 14:38 | 14.58644 | 74.57345 | 33882 ft | 466 kts | 295° |
| 2026-04-24 14:38 | 14.61766 | 74.51427 | 33894 ft | 466 kts | 295° |
| 2026-04-24 14:39 | 14.64914 | 74.45459 | 33895 ft | 466 kts | 296° |
| 2026-04-24 14:39 | 14.68053 | 74.39536 | 33893 ft | 466 kts | 295° |
| 2026-04-24 14:40 | 14.70604 | 74.34705 | 33891 ft | 467 kts | 295° |
| 2026-04-24 14:40 | 14.74258 | 74.27769 | 33896 ft | 467 kts | 295° |
| 2026-04-24 14:41 | 14.76920 | 74.22726 | 33900 ft | 467 kts | 296° |
| 2026-04-24 14:41 | 14.80022 | 74.16838 | 33904 ft | 465 kts | 296° |
| 2026-04-24 14:42 | 14.83117 | 74.10942 | 33903 ft | 465 kts | 295° |
| 2026-04-24 14:42 | 14.86205 | 74.05052 | 33904 ft | 466 kts | 296° |
| 2026-04-24 14:43 | 14.89290 | 73.99166 | 33906 ft | 465 kts | 296° |
| 2026-04-24 14:43 | 14.92383 | 73.93269 | 33904 ft | 465 kts | 296° |
| 2026-04-24 14:44 | 14.95517 | 73.87302 | 33905 ft | 466 kts | 296° |
| 2026-04-24 14:44 | 14.98771 | 73.81091 | 33906 ft | 466 kts | 296° |
| 2026-04-24 14:45 | 15.01817 | 73.75265 | 33905 ft | 466 kts | 296° |
| 2026-04-24 14:45 | 15.04896 | 73.69364 | 33905 ft | 466 kts | 296° |
| 2026-04-24 14:46 | 15.07971 | 73.63460 | 33906 ft | 466 kts | 296° |
| 2026-04-24 14:46 | 15.11088 | 73.57470 | 33905 ft | 466 kts | 296° |
| 2026-04-24 14:47 | 15.13638 | 73.52563 | 33905 ft | 466 kts | 296° |
| 2026-04-24 14:47 | 15.17309 | 73.45506 | 33905 ft | 466 kts | 296° |
| 2026-04-24 14:48 | 15.20398 | 73.39595 | 33905 ft | 466 kts | 296° |
| 2026-04-24 14:48 | 15.23470 | 73.33693 | 33906 ft | 466 kts | 296° |
| 2026-04-24 14:49 | 15.26544 | 73.27776 | 33905 ft | 466 kts | 296° |
| 2026-04-24 14:49 | 15.29610 | 73.21868 | 33905 ft | 465 kts | 295° |
| 2026-04-24 14:50 | 15.32165 | 73.16941 | 33906 ft | 465 kts | 295° |
| 2026-04-24 14:50 | 15.35225 | 73.11033 | 33906 ft | 465 kts | 295° |
| 2026-04-24 14:51 | 15.38306 | 73.05081 | 33905 ft | 465 kts | 295° |
| 2026-04-24 14:51 | 15.41346 | 72.99203 | 33906 ft | 465 kts | 295° |
| 2026-04-24 14:52 | 15.44422 | 72.93250 | 33906 ft | 466 kts | 295° |
| 2026-04-24 14:52 | 15.47506 | 72.87280 | 33905 ft | 470 kts | 295° |
| 2026-04-24 14:53 | 15.50671 | 72.81143 | 33906 ft | 471 kts | 295° |
| 2026-04-24 14:53 | 15.53760 | 72.75151 | 33905 ft | 471 kts | 295° |
| 2026-04-24 14:54 | 15.56877 | 72.69101 | 33906 ft | 471 kts | 295° |
| 2026-04-24 14:54 | 15.59970 | 72.63090 | 33905 ft | 471 kts | 295° |
| 2026-04-24 14:55 | 15.62534 | 72.58105 | 33906 ft | 471 kts | 295° |
| 2026-04-24 14:55 | 15.66116 | 72.51133 | 33906 ft | 470 kts | 295° |
| 2026-04-24 14:56 | 15.69195 | 72.45135 | 33905 ft | 470 kts | 295° |
| 2026-04-24 14:56 | 15.72274 | 72.39132 | 33906 ft | 470 kts | 295° |
| 2026-04-24 14:57 | 15.75344 | 72.33142 | 33905 ft | 470 kts | 295° |
| 2026-04-24 14:57 | 15.78423 | 72.27130 | 33906 ft | 470 kts | 295° |
| 2026-04-24 14:58 | 15.81487 | 72.21141 | 33905 ft | 470 kts | 295° |
| 2026-04-24 14:58 | 15.84552 | 72.15145 | 33905 ft | 470 kts | 295° |
| 2026-04-24 14:59 | 15.87617 | 72.09145 | 33906 ft | 470 kts | 295° |
| 2026-04-24 14:59 | 15.90680 | 72.03142 | 33905 ft | 470 kts | 295° |
| 2026-04-24 15:00 | 15.93677 | 71.97265 | 33933 ft | 470 kts | 295° |
| 2026-04-24 15:00 | 15.96829 | 71.91099 | 33934 ft | 470 kts | 295° |
| 2026-04-24 15:01 | 15.99889 | 71.85093 | 33935 ft | 470 kts | 295° |
| 2026-04-24 15:01 | 16.02965 | 71.79034 | 33935 ft | 470 kts | 295° |
| 2026-04-24 15:02 | 16.06013 | 71.73026 | 33934 ft | 470 kts | 295° |
| 2026-04-24 15:02 | 16.09063 | 71.67015 | 33935 ft | 470 kts | 295° |
| 2026-04-24 15:03 | 16.11608 | 71.62026 | 33935 ft | 470 kts | 296° |
| 2026-04-24 15:03 | 16.15296 | 71.55012 | 33934 ft | 470 kts | 296° |
| 2026-04-24 15:04 | 16.18418 | 71.49044 | 33935 ft | 470 kts | 296° |
| 2026-04-24 15:04 | 16.21560 | 71.43021 | 33935 ft | 470 kts | 296° |
| 2026-04-24 15:05 | 16.24677 | 71.37039 | 33935 ft | 470 kts | 296° |
| 2026-04-24 15:05 | 16.27798 | 71.31062 | 33935 ft | 470 kts | 296° |
| 2026-04-24 15:06 | 16.30395 | 71.26098 | 33935 ft | 470 kts | 296° |
| 2026-04-24 15:06 | 16.34042 | 71.19098 | 33935 ft | 470 kts | 296° |
| 2026-04-24 15:07 | 16.37171 | 71.13081 | 33935 ft | 470 kts | 296° |
| 2026-04-24 15:07 | 16.40290 | 71.07104 | 33934 ft | 470 kts | 296° |
| 2026-04-24 15:08 | 16.43418 | 71.01075 | 33935 ft | 470 kts | 296° |
| 2026-04-24 15:08 | 16.45997 | 70.96092 | 33935 ft | 470 kts | 296° |
| 2026-04-24 15:09 | 16.49097 | 70.90100 | 33935 ft | 470 kts | 296° |
| 2026-04-24 15:09 | 16.52225 | 70.84057 | 33934 ft | 470 kts | 296° |
| 2026-04-24 15:10 | 16.55308 | 70.78144 | 33935 ft | 470 kts | 296° |
| 2026-04-24 15:10 | 16.58470 | 70.72114 | 33935 ft | 470 kts | 296° |
| 2026-04-24 15:11 | 16.61597 | 70.66130 | 33935 ft | 470 kts | 296° |
| 2026-04-24 15:11 | 16.64718 | 70.60150 | 33935 ft | 470 kts | 296° |
| 2026-04-24 15:12 | 16.67847 | 70.54148 | 33934 ft | 470 kts | 296° |
| 2026-04-24 15:12 | 16.72566 | 70.45136 | 33926 ft | 470 kts | 296° |
| 2026-04-24 15:13 | 16.75689 | 70.39158 | 33934 ft | 470 kts | 296° |
| 2026-04-24 15:13 | 16.78823 | 70.33144 | 33934 ft | 470 kts | 296° |
| 2026-04-24 15:14 | 16.81923 | 70.27187 | 33923 ft | 470 kts | 296° |
| 2026-04-24 15:14 | 16.85109 | 70.21059 | 33917 ft | 471 kts | 296° |
| 2026-04-24 15:15 | 16.88210 | 70.15089 | 33918 ft | 471 kts | 296° |
| 2026-04-24 15:15 | 16.91357 | 70.09025 | 33892 ft | 472 kts | 296° |
| 2026-04-24 15:16 | 16.94490 | 70.02981 | 33874 ft | 474 kts | 296° |
| 2026-04-24 15:16 | 16.97629 | 69.96921 | 33874 ft | 474 kts | 296° |
| 2026-04-24 15:17 | 17.00855 | 69.90687 | 33882 ft | 473 kts | 296° |
| 2026-04-24 15:17 | 17.03911 | 69.84777 | 33886 ft | 473 kts | 296° |
| 2026-04-24 15:18 | 17.07069 | 69.78691 | 33872 ft | 473 kts | 296° |
| 2026-04-24 15:18 | 17.10197 | 69.72627 | 33871 ft | 474 kts | 296° |
| 2026-04-24 15:19 | 17.13319 | 69.66560 | 33871 ft | 474 kts | 296° |
| 2026-04-24 15:19 | 17.16301 | 69.60763 | 33872 ft | 474 kts | 296° |
| 2026-04-24 15:20 | 17.19331 | 69.54871 | 33870 ft | 474 kts | 296° |
| 2026-04-24 15:20 | 17.22536 | 69.48682 | 33871 ft | 474 kts | 296° |
| 2026-04-24 15:21 | 17.25742 | 69.42493 | 33870 ft | 474 kts | 296° |
| 2026-04-24 15:21 | 17.28470 | 69.37215 | 33869 ft | 474 kts | 296° |
| 2026-04-24 15:22 | 17.31668 | 69.31021 | 33870 ft | 474 kts | 296° |
| 2026-04-24 15:23 | 17.36539 | 69.21585 | 33870 ft | 474 kts | 296° |
| 2026-04-24 15:23 | 17.41252 | 69.12491 | 33838 ft | 476 kts | 296° |
| 2026-04-24 15:25 | 17.48894 | 68.97665 | 33835 ft | 482 kts | 296° |
| 2026-04-24 15:26 | 17.56850 | 68.82182 | 33815 ft | 485 kts | 297° |
| 2026-04-24 15:27 | 17.66528 | 68.63298 | 33788 ft | 489 kts | 297° |
| 2026-04-24 15:29 | 17.76211 | 68.44348 | 33788 ft | 489 kts | 297° |
| 2026-04-24 15:31 | 17.87375 | 68.22429 | 33808 ft | 490 kts | 297° |
| 2026-04-24 15:33 | 18.00249 | 67.97076 | 33808 ft | 490 kts | 297° |
| 2026-04-24 15:34 | 18.08243 | 67.81252 | 33809 ft | 490 kts | 297° |
| 2026-04-24 15:35 | 18.16503 | 67.65512 | 33808 ft | 490 kts | 297° |
| 2026-04-24 15:36 | 18.19766 | 67.59272 | 33809 ft | 490 kts | 297° |
| 2026-04-24 15:36 | 18.24184 | 67.50804 | 33808 ft | 491 kts | 297° |
| 2026-04-24 15:37 | 18.27617 | 67.44272 | 33815 ft | 484 kts | 297° |
| 2026-04-24 15:37 | 18.30860 | 67.38074 | 33816 ft | 479 kts | 296° |
| 2026-04-24 15:38 | 18.34242 | 67.31589 | 33817 ft | 480 kts | 296° |
| 2026-04-24 15:38 | 18.37563 | 67.25212 | 33817 ft | 480 kts | 296° |
| 2026-04-24 15:39 | 18.40780 | 67.19028 | 33816 ft | 481 kts | 296° |
| 2026-04-24 15:39 | 18.43642 | 67.13521 | 33817 ft | 480 kts | 296° |
| 2026-04-24 15:40 | 18.46698 | 67.07634 | 33816 ft | 476 kts | 297° |
| 2026-04-24 15:40 | 18.49890 | 67.01479 | 33817 ft | 475 kts | 296° |
| 2026-04-24 15:41 | 18.53125 | 66.95235 | 33817 ft | 476 kts | 296° |
| 2026-04-24 15:41 | 18.56297 | 66.89107 | 33816 ft | 476 kts | 296° |
| 2026-04-24 15:42 | 18.59492 | 66.82929 | 33817 ft | 476 kts | 296° |
| 2026-04-24 15:42 | 18.62656 | 66.76803 | 33817 ft | 476 kts | 296° |
| 2026-04-24 15:43 | 18.65889 | 66.70539 | 33816 ft | 476 kts | 296° |
| 2026-04-24 15:43 | 18.69049 | 66.64409 | 33817 ft | 476 kts | 296° |
| 2026-04-24 15:44 | 18.72208 | 66.58274 | 33817 ft | 476 kts | 296° |
| 2026-04-24 15:44 | 18.75365 | 66.52138 | 33816 ft | 476 kts | 296° |
| 2026-04-24 15:45 | 18.78522 | 66.45995 | 33817 ft | 475 kts | 296° |
| 2026-04-24 15:45 | 18.81673 | 66.39860 | 33817 ft | 475 kts | 296° |
| 2026-04-24 15:46 | 18.84881 | 66.33605 | 33816 ft | 475 kts | 296° |
| 2026-04-24 15:46 | 18.88013 | 66.27492 | 33817 ft | 475 kts | 296° |
| 2026-04-24 15:47 | 18.91223 | 66.21222 | 33817 ft | 475 kts | 296° |
| 2026-04-24 15:47 | 18.94324 | 66.15157 | 33816 ft | 475 kts | 296° |
| 2026-04-24 15:48 | 18.97538 | 66.08866 | 33817 ft | 475 kts | 296° |
| 2026-04-24 15:48 | 19.00689 | 66.02691 | 33817 ft | 475 kts | 296° |
| 2026-04-24 15:49 | 19.03291 | 65.97586 | 33817 ft | 475 kts | 296° |
| 2026-04-24 15:49 | 19.06432 | 65.91421 | 33816 ft | 475 kts | 296° |
| 2026-04-24 15:50 | 19.09436 | 65.85508 | 33817 ft | 471 kts | 298° |
| 2026-04-24 15:50 | 19.12551 | 65.79385 | 33816 ft | 469 kts | 298° |
| 2026-04-24 15:51 | 19.15638 | 65.73308 | 33817 ft | 469 kts | 298° |
| 2026-04-24 15:51 | 19.18728 | 65.67217 | 33817 ft | 470 kts | 298° |
| 2026-04-24 15:52 | 19.21837 | 65.61082 | 33816 ft | 469 kts | 298° |
| 2026-04-24 15:52 | 19.24907 | 65.55018 | 33817 ft | 469 kts | 298° |
| 2026-04-24 15:53 | 19.27999 | 65.48902 | 33817 ft | 469 kts | 298° |
| 2026-04-24 15:53 | 19.31063 | 65.42838 | 33816 ft | 469 kts | 298° |
| 2026-04-24 15:54 | 19.34147 | 65.36725 | 33817 ft | 469 kts | 298° |
| 2026-04-24 15:54 | 19.37246 | 65.30578 | 33816 ft | 469 kts | 298° |
| 2026-04-24 15:55 | 19.40352 | 65.24445 | 33816 ft | 468 kts | 298° |
| 2026-04-24 15:55 | 19.43430 | 65.18320 | 33817 ft | 469 kts | 298° |
| 2026-04-24 15:56 | 19.46491 | 65.12216 | 33817 ft | 469 kts | 298° |
| 2026-04-24 15:56 | 19.49486 | 65.06239 | 33817 ft | 468 kts | 298° |
| 2026-04-24 15:57 | 19.52602 | 65.00021 | 33817 ft | 468 kts | 298° |
| 2026-04-24 15:57 | 19.55707 | 64.93951 | 33816 ft | 468 kts | 299° |
| 2026-04-24 15:58 | 19.58842 | 64.87887 | 33815 ft | 471 kts | 298° |
| 2026-04-24 15:58 | 19.61989 | 64.81764 | 33815 ft | 473 kts | 298° |
| 2026-04-24 15:59 | 19.65114 | 64.75665 | 33816 ft | 469 kts | 299° |
| 2026-04-24 15:59 | 19.68305 | 64.69434 | 33816 ft | 467 kts | 299° |
| 2026-04-24 16:00 | 19.71236 | 64.63755 | 33802 ft | 473 kts | 298° |
| 2026-04-24 16:00 | 19.74422 | 64.57562 | 33808 ft | 482 kts | 297° |
| 2026-04-24 16:01 | 19.77672 | 64.51221 | 33809 ft | 483 kts | 297° |
| 2026-04-24 16:01 | 19.80888 | 64.44935 | 33809 ft | 484 kts | 297° |
| 2026-04-24 16:02 | 19.84122 | 64.38602 | 33807 ft | 491 kts | 297° |
| 2026-04-24 16:02 | 19.87413 | 64.32152 | 33808 ft | 494 kts | 297° |
| 2026-04-24 16:03 | 19.90700 | 64.25701 | 33808 ft | 493 kts | 297° |
| 2026-04-24 16:03 | 19.93990 | 64.19238 | 33807 ft | 492 kts | 297° |
| 2026-04-24 16:04 | 19.96817 | 64.13678 | 33808 ft | 492 kts | 297° |
| 2026-04-24 16:04 | 20.00076 | 64.07262 | 33807 ft | 492 kts | 297° |
| 2026-04-24 16:05 | 20.04976 | 63.97602 | 33807 ft | 492 kts | 297° |
| 2026-04-24 16:06 | 20.09894 | 63.87888 | 33807 ft | 492 kts | 297° |
| 2026-04-24 16:07 | 20.14851 | 63.78082 | 33807 ft | 492 kts | 297° |
| 2026-04-24 16:07 | 20.19779 | 63.68317 | 33807 ft | 492 kts | 297° |
| 2026-04-24 16:08 | 20.24658 | 63.58631 | 33807 ft | 492 kts | 297° |
| 2026-04-24 16:09 | 20.29510 | 63.48982 | 33807 ft | 492 kts | 297° |
| 2026-04-24 16:09 | 20.32723 | 63.42585 | 33808 ft | 492 kts | 297° |
| 2026-04-24 16:11 | 20.40625 | 63.26817 | 33816 ft | 492 kts | 297° |
| 2026-04-24 16:11 | 20.43886 | 63.20298 | 33817 ft | 492 kts | 297° |
| 2026-04-24 16:12 | 20.48220 | 63.11621 | 33816 ft | 492 kts | 297° |
| 2026-04-24 16:13 | 20.53049 | 63.01938 | 33816 ft | 492 kts | 297° |
| 2026-04-24 16:14 | 20.59471 | 62.89033 | 33817 ft | 492 kts | 297° |
| 2026-04-24 16:14 | 20.64283 | 62.79345 | 33817 ft | 492 kts | 297° |
| 2026-04-24 16:15 | 20.69089 | 62.69650 | 33817 ft | 492 kts | 297° |
| 2026-04-24 16:16 | 20.73916 | 62.59896 | 33817 ft | 492 kts | 297° |
| 2026-04-24 16:17 | 20.81910 | 62.43706 | 33816 ft | 492 kts | 297° |
| 2026-04-24 16:18 | 20.88339 | 62.30649 | 33817 ft | 492 kts | 296° |
| 2026-04-24 16:19 | 20.93373 | 62.20403 | 33817 ft | 492 kts | 296° |
| 2026-04-24 16:20 | 20.97717 | 62.11546 | 33817 ft | 492 kts | 296° |
| 2026-04-24 16:20 | 21.02010 | 62.02779 | 33816 ft | 492 kts | 296° |
| 2026-04-24 16:21 | 21.06781 | 61.93034 | 33816 ft | 492 kts | 297° |
| 2026-04-24 16:22 | 21.09961 | 61.86542 | 33817 ft | 492 kts | 296° |
| 2026-04-24 16:22 | 21.14731 | 61.76735 | 33817 ft | 492 kts | 296° |
| 2026-04-24 16:23 | 21.17898 | 61.70214 | 33816 ft | 492 kts | 296° |
| 2026-04-24 16:24 | 21.21085 | 61.59793 | 33816 ft | 491 kts | 276° |
| 2026-04-24 16:24 | 21.21404 | 61.52456 | 33818 ft | 490 kts | 270° |
| 2026-04-24 16:25 | 21.21432 | 61.45151 | 33816 ft | 490 kts | 270° |
| 2026-04-24 16:25 | 21.21561 | 61.37740 | 33816 ft | 490 kts | 271° |
| 2026-04-24 16:26 | 21.21825 | 61.26808 | 33816 ft | 490 kts | 271° |
| 2026-04-24 16:27 | 21.22138 | 61.15809 | 33816 ft | 490 kts | 271° |
| 2026-04-24 16:27 | 21.22329 | 61.08505 | 33817 ft | 490 kts | 271° |
| 2026-04-24 16:28 | 21.22513 | 61.01215 | 33817 ft | 490 kts | 271° |
| 2026-04-24 16:28 | 21.22783 | 60.90201 | 33817 ft | 490 kts | 271° |
| 2026-04-24 16:29 | 21.22958 | 60.82906 | 33816 ft | 490 kts | 271° |
| 2026-04-24 16:30 | 21.23286 | 60.68883 | 33816 ft | 490 kts | 271° |
| 2026-04-24 16:30 | 21.23457 | 60.61335 | 33816 ft | 490 kts | 271° |
| 2026-04-24 16:31 | 21.23608 | 60.54579 | 33817 ft | 490 kts | 271° |
| 2026-04-24 16:31 | 21.23789 | 60.46964 | 33816 ft | 490 kts | 271° |
| 2026-04-24 16:32 | 21.23949 | 60.39693 | 33817 ft | 490 kts | 271° |
| 2026-04-24 16:32 | 21.24099 | 60.32239 | 33817 ft | 490 kts | 271° |
| 2026-04-24 16:33 | 21.24243 | 60.24907 | 33816 ft | 490 kts | 271° |
| 2026-04-24 16:33 | 21.24364 | 60.18758 | 33817 ft | 489 kts | 271° |
| 2026-04-24 16:34 | 21.24526 | 60.10259 | 33817 ft | 489 kts | 271° |
| 2026-04-24 16:34 | 21.24636 | 60.04195 | 33817 ft | 489 kts | 271° |
| 2026-04-24 16:35 | 21.24767 | 59.96766 | 33837 ft | 480 kts | 271° |
| 2026-04-24 16:35 | 21.24829 | 59.93239 | 33841 ft | 469 kts | 271° |
| 2026-04-24 16:35 | 21.24889 | 59.89771 | 33844 ft | 463 kts | 271° |
| 2026-04-24 16:36 | 21.25039 | 59.82776 | 33843 ft | 457 kts | 271° |
| 2026-04-24 16:36 | 21.25165 | 59.76021 | 33844 ft | 455 kts | 271° |
| 2026-04-24 16:37 | 21.25274 | 59.69230 | 33848 ft | 452 kts | 272° |
| 2026-04-24 16:37 | 21.25381 | 59.62439 | 33847 ft | 453 kts | 272° |
| 2026-04-24 16:38 | 21.25487 | 59.55599 | 33847 ft | 453 kts | 272° |
| 2026-04-24 16:38 | 21.25591 | 59.48831 | 33848 ft | 453 kts | 272° |
| 2026-04-24 16:39 | 21.25690 | 59.42035 | 33847 ft | 453 kts | 272° |
| 2026-04-24 16:39 | 21.25785 | 59.35278 | 33847 ft | 453 kts | 272° |
| 2026-04-24 16:40 | 21.25868 | 59.29160 | 33847 ft | 453 kts | 272° |
| 2026-04-24 16:40 | 21.25957 | 59.22469 | 33847 ft | 453 kts | 272° |
| 2026-04-24 16:41 | 21.26048 | 59.15662 | 33847 ft | 453 kts | 272° |
| 2026-04-24 16:41 | 21.26176 | 59.08911 | 33846 ft | 453 kts | 272° |
| 2026-04-24 16:42 | 21.26269 | 59.02113 | 33847 ft | 453 kts | 272° |
| 2026-04-24 16:42 | 21.26349 | 58.95321 | 33847 ft | 453 kts | 272° |
| 2026-04-24 16:43 | 21.26421 | 58.88874 | 33846 ft | 453 kts | 272° |
| 2026-04-24 16:43 | 21.26513 | 58.82851 | 33846 ft | 452 kts | 274° |
| 2026-04-24 16:44 | 21.27591 | 58.76168 | 33846 ft | 452 kts | 284° |
| 2026-04-24 16:44 | 21.29312 | 58.69592 | 33847 ft | 452 kts | 287° |
| 2026-04-24 16:45 | 21.31182 | 58.63105 | 33846 ft | 452 kts | 287° |
| 2026-04-24 16:45 | 21.33127 | 58.56319 | 33847 ft | 452 kts | 287° |
| 2026-04-24 16:46 | 21.34918 | 58.50038 | 33848 ft | 452 kts | 287° |
| 2026-04-24 16:46 | 21.36780 | 58.43503 | 33847 ft | 452 kts | 287° |
| 2026-04-24 16:47 | 21.38789 | 58.36537 | 33847 ft | 452 kts | 287° |
| 2026-04-24 16:47 | 21.40369 | 58.31007 | 33847 ft | 452 kts | 287° |
| 2026-04-24 16:48 | 21.42195 | 58.24592 | 33848 ft | 452 kts | 287° |
| 2026-04-24 16:48 | 21.44036 | 58.18104 | 33848 ft | 452 kts | 287° |
| 2026-04-24 16:49 | 21.45866 | 58.11646 | 33848 ft | 452 kts | 287° |
| 2026-04-24 16:49 | 21.47693 | 58.05187 | 33849 ft | 452 kts | 286° |
| 2026-04-24 16:50 | 21.49270 | 57.99611 | 33848 ft | 452 kts | 287° |
| 2026-04-24 16:50 | 21.51121 | 57.93105 | 33849 ft | 452 kts | 286° |
| 2026-04-24 16:51 | 21.52875 | 57.86862 | 33850 ft | 452 kts | 286° |
| 2026-04-24 16:51 | 21.54735 | 57.80222 | 33849 ft | 452 kts | 286° |
| 2026-04-24 16:52 | 21.56556 | 57.73709 | 33849 ft | 452 kts | 286° |
| 2026-04-24 16:52 | 21.58366 | 57.67241 | 33850 ft | 452 kts | 286° |
| 2026-04-24 16:53 | 21.60181 | 57.60732 | 33850 ft | 452 kts | 286° |
| 2026-04-24 16:53 | 21.61979 | 57.54265 | 33851 ft | 455 kts | 286° |
| 2026-04-24 16:54 | 21.63750 | 57.47918 | 33851 ft | 456 kts | 287° |
| 2026-04-24 16:54 | 21.65645 | 57.41174 | 33852 ft | 455 kts | 286° |
| 2026-04-24 16:55 | 21.67451 | 57.34648 | 33852 ft | 455 kts | 286° |
| 2026-04-24 16:55 | 21.69102 | 57.28663 | 33852 ft | 455 kts | 286° |
| 2026-04-24 16:56 | 21.70952 | 57.21950 | 33852 ft | 455 kts | 286° |
| 2026-04-24 16:56 | 21.72754 | 57.15411 | 33852 ft | 455 kts | 286° |
| 2026-04-24 16:57 | 21.74487 | 57.09107 | 33853 ft | 455 kts | 286° |
| 2026-04-24 16:57 | 21.76360 | 57.02312 | 33853 ft | 455 kts | 286° |
| 2026-04-24 16:58 | 21.78164 | 56.95790 | 33853 ft | 455 kts | 286° |
| 2026-04-24 16:58 | 21.79891 | 56.89471 | 33854 ft | 455 kts | 286° |
| 2026-04-24 16:59 | 21.81669 | 56.82938 | 33854 ft | 455 kts | 286° |
| 2026-04-24 17:00 | 21.84000 | 56.74373 | 33854 ft | 455 kts | 286° |
| 2026-04-24 17:00 | 21.86708 | 56.64471 | 33856 ft | 455 kts | 286° |
| 2026-04-24 17:01 | 21.89113 | 56.55634 | 33855 ft | 455 kts | 286° |
| 2026-04-24 17:02 | 21.91773 | 56.45776 | 33856 ft | 455 kts | 286° |
| 2026-04-24 17:02 | 21.93565 | 56.39131 | 33857 ft | 455 kts | 286° |
| 2026-04-24 17:03 | 21.96216 | 56.29333 | 33856 ft | 455 kts | 286° |
| 2026-04-24 17:04 | 21.97984 | 56.22749 | 33858 ft | 455 kts | 286° |
| 2026-04-24 17:04 | 22.00617 | 56.12894 | 34146 ft | 456 kts | 285° |
| 2026-04-24 17:05 | 22.01514 | 56.09540 | 34353 ft | 457 kts | 285° |
| 2026-04-24 17:05 | 22.02376 | 56.06310 | 34515 ft | 458 kts | 285° |
| 2026-04-24 17:05 | 22.04149 | 55.99692 | 34862 ft | 460 kts | 285° |
| 2026-04-24 17:06 | 22.05035 | 55.96378 | 35022 ft | 461 kts | 285° |
| 2026-04-24 17:06 | 22.06841 | 55.89618 | 35342 ft | 463 kts | 284° |
| 2026-04-24 17:06 | 22.07749 | 55.86286 | 35498 ft | 464 kts | 284° |
| 2026-04-24 17:07 | 22.08361 | 55.84021 | 35602 ft | 465 kts | 284° |
| 2026-04-24 17:07 | 22.09586 | 55.79441 | 35847 ft | 465 kts | 284° |
| 2026-04-24 17:08 | 22.13095 | 55.66207 | 35860 ft | 460 kts | 284° |
| 2026-04-24 17:08 | 22.14872 | 55.59499 | 35861 ft | 461 kts | 284° |
| 2026-04-24 17:09 | 22.16924 | 55.45903 | 35861 ft | 460 kts | 274° |
| 2026-04-24 17:10 | 22.17957 | 55.33430 | 35861 ft | 459 kts | 274° |
| 2026-04-24 17:12 | 22.20574 | 55.05877 | 35863 ft | 460 kts | 275° |
| 2026-04-24 18:54 | 23.81271 | 41.75170 | 36018 ft | 435 kts | 283° |
| 2026-04-24 18:55 | 23.83723 | 41.66641 | 36013 ft | 435 kts | 283° |
| 2026-04-24 18:56 | 23.85565 | 41.60194 | 35757 ft | 444 kts | 283° |
| 2026-04-24 18:56 | 23.86478 | 41.57001 | 35421 ft | 449 kts | 283° |
| 2026-04-24 18:56 | 23.87413 | 41.53728 | 35035 ft | 451 kts | 283° |
| 2026-04-24 18:56 | 23.88332 | 41.50510 | 34641 ft | 449 kts | 283° |
| 2026-04-24 18:57 | 23.89313 | 41.47051 | 34200 ft | 442 kts | 283° |
| 2026-04-24 18:57 | 23.90277 | 41.43645 | 33733 ft | 436 kts | 283° |
| 2026-04-24 18:57 | 23.91166 | 41.40501 | 33283 ft | 432 kts | 283° |
| 2026-04-24 18:57 | 23.92052 | 41.37369 | 32832 ft | 429 kts | 283° |
| 2026-04-24 18:58 | 23.92927 | 41.34267 | 32392 ft | 427 kts | 283° |
| 2026-04-24 18:58 | 23.93775 | 41.31279 | 31978 ft | 429 kts | 283° |
| 2026-04-24 18:58 | 23.94699 | 41.28040 | 31534 ft | 429 kts | 284° |
| 2026-04-24 18:58 | 23.95578 | 41.24985 | 31115 ft | 425 kts | 283° |
| 2026-04-24 18:59 | 23.96466 | 41.21869 | 30684 ft | 422 kts | 283° |
| 2026-04-24 18:59 | 23.97323 | 41.18840 | 30258 ft | 412 kts | 282° |
| 2026-04-24 18:59 | 23.98201 | 41.15723 | 29791 ft | 408 kts | 282° |
| 2026-04-24 18:59 | 23.99043 | 41.12723 | 29338 ft | 411 kts | 282° |
| 2026-04-24 19:00 | 23.99874 | 41.09764 | 28883 ft | 403 kts | 282° |
| 2026-04-24 19:00 | 24.00506 | 41.07515 | 28536 ft | 401 kts | 281° |
| 2026-04-24 19:00 | 24.01044 | 41.05597 | 28247 ft | 403 kts | 281° |
| 2026-04-24 19:00 | 24.01876 | 41.02632 | 27795 ft | 407 kts | 281° |
| 2026-04-24 19:01 | 24.02703 | 40.99685 | 27346 ft | 405 kts | 281° |
| 2026-04-24 19:01 | 24.03461 | 40.96988 | 26931 ft | 402 kts | 281° |
| 2026-04-24 19:01 | 24.04101 | 40.94700 | 26578 ft | 400 kts | 280° |
| 2026-04-24 19:01 | 24.04982 | 40.91561 | 26090 ft | 397 kts | 280° |
| 2026-04-24 19:02 | 24.05591 | 40.89387 | 25751 ft | 396 kts | 280° |
| 2026-04-24 19:02 | 24.06671 | 40.85530 | 25146 ft | 396 kts | 280° |
| 2026-04-24 19:02 | 24.07490 | 40.82655 | 24696 ft | 396 kts | 280° |
| 2026-04-24 19:02 | 24.08303 | 40.79783 | 24245 ft | 394 kts | 279° |
| 2026-04-24 19:03 | 24.09169 | 40.76694 | 23758 ft | 390 kts | 279° |
| 2026-04-24 19:03 | 24.10083 | 40.73860 | 23303 ft | 391 kts | 285° |
| 2026-04-24 19:03 | 24.11259 | 40.71164 | 22854 ft | 393 kts | 289° |
| 2026-04-24 19:03 | 24.12507 | 40.68503 | 22403 ft | 392 kts | 290° |
| 2026-04-24 19:04 | 24.13706 | 40.66054 | 22148 ft | 387 kts | 291° |
| 2026-04-24 19:04 | 24.14663 | 40.64146 | 21901 ft | 384 kts | 291° |
| 2026-04-24 19:04 | 24.16380 | 40.60781 | 21303 ft | 380 kts | 292° |
| 2026-04-24 19:04 | 24.17666 | 40.58268 | 20853 ft | 377 kts | 292° |
| 2026-04-24 19:05 | 24.18523 | 40.56593 | 20552 ft | 376 kts | 292° |
| 2026-04-24 19:05 | 24.19857 | 40.53980 | 20079 ft | 373 kts | 292° |
| 2026-04-24 19:05 | 24.21124 | 40.51496 | 19627 ft | 373 kts | 293° |
| 2026-04-24 19:05 | 24.22387 | 40.49019 | 19177 ft | 373 kts | 293° |
| 2026-04-24 19:06 | 24.23648 | 40.46543 | 18728 ft | 372 kts | 293° |
| 2026-04-24 19:06 | 24.24838 | 40.44206 | 18348 ft | 369 kts | 293° |
| 2026-04-24 19:06 | 24.26239 | 40.41452 | 17926 ft | 367 kts | 293° |
| 2026-04-24 19:06 | 24.27492 | 40.38987 | 17546 ft | 366 kts | 293° |
| 2026-04-24 19:07 | 24.28731 | 40.36550 | 17170 ft | 366 kts | 293° |
| 2026-04-24 19:07 | 24.29969 | 40.34111 | 16795 ft | 367 kts | 293° |
| 2026-04-24 19:07 | 24.30808 | 40.32459 | 16542 ft | 367 kts | 293° |
| 2026-04-24 19:07 | 24.32522 | 40.29081 | 15998 ft | 366 kts | 293° |
| 2026-04-24 19:08 | 24.33756 | 40.26647 | 15573 ft | 366 kts | 293° |
| 2026-04-24 19:08 | 24.34989 | 40.24213 | 15149 ft | 365 kts | 293° |
| 2026-04-24 19:08 | 24.36220 | 40.21782 | 14721 ft | 362 kts | 293° |
| 2026-04-24 19:08 | 24.37481 | 40.19291 | 14280 ft | 359 kts | 293° |
| 2026-04-24 19:09 | 24.38691 | 40.16900 | 13853 ft | 356 kts | 293° |
| 2026-04-24 19:09 | 24.39894 | 40.14521 | 13425 ft | 354 kts | 293° |
| 2026-04-24 19:09 | 24.41082 | 40.12181 | 13154 ft | 350 kts | 293° |
| 2026-04-24 19:09 | 24.42293 | 40.09816 | 13025 ft | 349 kts | 293° |
| 2026-04-24 19:10 | 24.43468 | 40.07502 | 12584 ft | 352 kts | 293° |
| 2026-04-24 19:10 | 24.44402 | 40.05661 | 12222 ft | 341 kts | 293° |
| 2026-04-24 19:10 | 24.45227 | 40.04024 | 11878 ft | 324 kts | 293° |
| 2026-04-24 19:10 | 24.46325 | 40.01850 | 11439 ft | 325 kts | 293° |
| 2026-04-24 19:11 | 24.47402 | 39.99712 | 11012 ft | 312 kts | 293° |
| 2026-04-24 19:11 | 24.48440 | 39.97645 | 10988 ft | 306 kts | 293° |
| 2026-04-24 19:11 | 24.49492 | 39.95555 | 11010 ft | 312 kts | 293° |
| 2026-04-24 19:11 | 24.50543 | 39.93464 | 10998 ft | 315 kts | 293° |
| 2026-04-24 19:12 | 24.51606 | 39.91351 | 10997 ft | 314 kts | 293° |
| 2026-04-24 19:12 | 24.52672 | 39.89230 | 10990 ft | 312 kts | 293° |
| 2026-04-24 19:12 | 24.53719 | 39.87147 | 10992 ft | 312 kts | 293° |
| 2026-04-24 19:12 | 24.54761 | 39.85081 | 10994 ft | 311 kts | 294° |
| 2026-04-24 19:13 | 24.55559 | 39.83740 | 10981 ft | 315 kts | 303° |
| 2026-04-24 19:13 | 24.57938 | 39.81780 | 10898 ft | 324 kts | 329° |
| 2026-04-24 19:13 | 24.60073 | 39.80938 | 10455 ft | 329 kts | 339° |
| 2026-04-24 19:13 | 24.62255 | 39.80361 | 10001 ft | 318 kts | 343° |
| 2026-04-24 19:14 | 24.64442 | 39.79916 | 9548 ft | 317 kts | 346° |
| 2026-04-24 19:14 | 24.65995 | 39.79635 | 9223 ft | 312 kts | 346° |
| 2026-04-24 19:14 | 24.68136 | 39.79234 | 8782 ft | 315 kts | 346° |
| 2026-04-24 19:14 | 24.70291 | 39.78798 | 8324 ft | 311 kts | 345° |
| 2026-04-24 19:15 | 24.72401 | 39.78357 | 7861 ft | 297 kts | 345° |
| 2026-04-24 19:15 | 24.74346 | 39.77947 | 7414 ft | 286 kts | 346° |
| 2026-04-24 19:15 | 24.76311 | 39.77529 | 7153 ft | 266 kts | 345° |
| 2026-04-24 19:15 | 24.78084 | 39.77151 | 7079 ft | 257 kts | 345° |
| 2026-04-24 19:16 | 24.81648 | 39.76393 | 6602 ft | 266 kts | 345° |
| 2026-04-24 19:16 | 24.83440 | 39.76010 | 6375 ft | 252 kts | 345° |
| 2026-04-24 19:16 | 24.85076 | 39.75560 | 6297 ft | 241 kts | 332° |
| 2026-04-24 19:17 | 24.86385 | 39.74424 | 6234 ft | 235 kts | 301° |
| 2026-04-24 19:17 | 24.86913 | 39.72821 | 6203 ft | 214 kts | 269° |
| 2026-04-24 19:17 | 24.86557 | 39.71213 | 6235 ft | 200 kts | 243° |
| 2026-04-24 19:17 | 24.85789 | 39.69951 | 6215 ft | 197 kts | 232° |
| 2026-04-24 19:18 | 24.84844 | 39.68879 | 6205 ft | 194 kts | 223° |
| 2026-04-24 19:18 | 24.83844 | 39.67888 | 6190 ft | 193 kts | 221° |
| 2026-04-24 19:18 | 24.82786 | 39.66891 | 6197 ft | 194 kts | 220° |
| 2026-04-24 19:18 | 24.82097 | 39.66257 | 6195 ft | 195 kts | 220° |
| 2026-04-24 19:19 | 24.80577 | 39.65202 | 6176 ft | 195 kts | 195° |
| 2026-04-24 19:19 | 24.79243 | 39.65299 | 6194 ft | 195 kts | 172° |
| 2026-04-24 19:19 | 24.77927 | 39.65676 | 6165 ft | 196 kts | 168° |
| 2026-04-24 19:19 | 24.76597 | 39.66116 | 5884 ft | 189 kts | 168° |
| 2026-04-24 19:20 | 24.75331 | 39.66494 | 5647 ft | 191 kts | 170° |
| 2026-04-24 19:20 | 24.74233 | 39.66775 | 5430 ft | 195 kts | 171° |
| 2026-04-24 19:20 | 24.73520 | 39.66941 | 5290 ft | 198 kts | 172° |
| 2026-04-24 19:20 | 24.72139 | 39.67246 | 5016 ft | 199 kts | 172° |
| 2026-04-24 19:21 | 24.70809 | 39.67533 | 4751 ft | 192 kts | 172° |
| 2026-04-24 19:21 | 24.69504 | 39.67812 | 4518 ft | 189 kts | 172° |
| 2026-04-24 19:21 | 24.68224 | 39.68085 | 4258 ft | 186 kts | 171° |
| 2026-04-24 19:21 | 24.67377 | 39.68266 | 4088 ft | 182 kts | 171° |
| 2026-04-24 19:22 | 24.66117 | 39.68534 | 3860 ft | 173 kts | 171° |
| 2026-04-24 19:22 | 24.65012 | 39.68769 | 3615 ft | 157 kts | 171° |
| 2026-04-24 19:22 | 24.63936 | 39.68998 | 3405 ft | 151 kts | 171° |
| 2026-04-24 19:22 | 24.62921 | 39.69214 | 3212 ft | 147 kts | 171° |
| 2026-04-24 19:23 | 24.61902 | 39.69431 | 3015 ft | 147 kts | 171° |
| 2026-04-24 19:23 | 24.60902 | 39.69643 | 2823 ft | 149 kts | 170° |
| 2026-04-24 19:23 | 24.59869 | 39.69863 | 2623 ft | 150 kts | 169° |
| 2026-04-24 19:23 | 24.58838 | 39.70082 | 2429 ft | 151 kts | 169° |
| 2026-04-24 19:24 | 24.57760 | 39.70311 | 2223 ft | 155 kts | 170° |
| 2026-04-24 19:24 | 24.56795 | 39.70516 | 2165 ft | 123 kts | 170° |
| 2026-04-24 19:24 | 24.56130 | 39.70656 | 2165 ft | 70 kts | 169° |
| 2026-04-24 19:24 | 24.55765 | 39.70735 | 2165 ft | 49 kts | 169° |
| 2026-04-24 19:25 | 24.55443 | 39.70805 | 2165 ft | 31 kts | 163° |
| 2026-04-24 19:25 | 24.55278 | 39.70914 | 2165 ft | 21 kts | 141° |
| 2026-04-24 19:25 | 24.55226 | 39.70998 | 2165 ft | 8 kts | 86° |
| 2026-04-24 19:25 | 24.55228 | 39.71025 | 2165 ft | 5 kts | 83° |
| 2026-04-24 19:26 | 24.55232 | 39.71055 | 2165 ft | 1 kts | 79° |
| 2026-04-24 19:26 | 24.55237 | 39.71087 | 2165 ft | 8 kts | 79° |
| 2026-04-24 19:26 | 24.55244 | 39.71127 | 2165 ft | 7 kts | 79° |
| 2026-04-24 19:26 | 24.55248 | 39.71152 | 2165 ft | 4 kts | 79° |
| 2026-04-24 19:27 | 24.55256 | 39.71196 | 2165 ft | 7 kts | 73° |
| 2026-04-24 19:27 | 24.55300 | 39.71220 | 2165 ft | 3 kts | 355° |
| 2026-04-24 19:27 | 24.55330 | 39.71215 | 2165 ft | 6 kts | 346° |
| 2026-04-24 19:27 | 24.55370 | 39.71205 | 2165 ft | 9 kts | 348° |
| 2026-04-24 19:28 | 24.55430 | 39.71191 | 2165 ft | 8 kts | 349° |
| 2026-04-24 19:28 | 24.55499 | 39.71176 | 2165 ft | 11 kts | 348° |
| 2026-04-24 19:28 | 24.55571 | 39.71160 | 2165 ft | 5 kts | 349° |
| 2026-04-24 19:28 | 24.55610 | 39.71182 | 2165 ft | 9 kts | 58° |
| 2026-04-24 19:29 | 24.55624 | 39.71246 | 2165 ft | 0 kts | 78° |
| 2026-04-24 19:35 | 24.55623 | 39.71239 | 2165 ft | 2 kts | 78° |
| 2026-04-24 19:35 | 24.55623 | 39.71240 | 2165 ft | 0 kts | 78° |